Time;durP1;ratioP1;P1;durP2;ratioP2;P2;SDS_P1;SDS_P2;PMS_P1;PMS_P2;Temp;Humidity;BMP_temperature;BMP_pressure;BME280_temperature;BME280_humidity;BME280_pressure;Samples;Min_cycle;Max_cycle;Signal;HPM_P1;HPM_P2
2021/12/22 00:00:30;;;;;;;;;57.67;45.67;;;;;2.45;67.12;102112.75;5023030;28;45408;-61
2021/12/22 00:02:57;;;;;;;;;47.33;43.67;;;;;2.46;67.38;102117.94;5015881;28;45339;-61
2021/12/22 00:05:28;;;;;;;;;61.00;43.67;;;;;2.48;67.25;102116.19;5029213;28;45380;-62
2021/12/22 00:07:54;;;;;;;;;60.33;45.33;;;;;2.49;67.60;102111.84;5024668;28;45356;-62
2021/12/22 00:10:21;;;;;;;;;59.67;45.67;;;;;2.48;67.47;102110.97;5024939;28;45563;-63
2021/12/22 00:12:48;;;;;;;;;64.33;47.67;;;;;2.45;67.51;102113.59;5024428;28;45378;-62
2021/12/22 00:15:15;;;;;;;;;54.33;45.33;;;;;2.45;67.76;102110.13;5027167;28;45380;-63
2021/12/22 00:17:42;;;;;;;;;64.00;46.33;;;;;2.44;67.30;102108.38;5024403;28;45478;-62
2021/12/22 00:20:09;;;;;;;;;68.00;49.00;;;;;2.42;67.58;102110.13;5027214;28;46110;-62
2021/12/22 00:22:35;;;;;;;;;65.33;47.33;;;;;2.37;67.76;102110.16;5024433;28;45362;-62
2021/12/22 00:25:01;;;;;;;;;71.33;51.33;;;;;2.33;67.98;102108.44;5026880;28;45321;-62
2021/12/22 00:27:27;;;;;;;;;65.67;47.00;;;;;2.31;67.88;102098.91;5024394;28;45284;-62
2021/12/22 00:29:53;;;;;;;;;64.33;50.33;;;;;2.30;67.64;102099.78;5026346;28;45402;-62
2021/12/22 00:32:19;;;;;;;;;49.00;42.33;;;;;2.24;67.85;102098.94;5023863;28;45318;-61
2021/12/22 00:34:49;;;;;;;;;63.25;45.75;;;;;2.21;68.15;102104.16;5024157;28;45395;-62
2021/12/22 00:37:22;;;;;;;;;60.00;45.33;;;;;2.20;67.77;102102.38;5024889;28;45491;-62
2021/12/22 00:39:48;;;;;;;;;54.50;41.75;;;;;2.16;67.65;102099.81;5021557;28;45316;-62
2021/12/22 00:42:15;;;;;;;;;44.50;38.25;;;;;2.14;67.77;102101.56;5026127;28;45398;-62
2021/12/22 00:44:43;;;;;;;;;51.67;46.33;;;;;2.11;67.18;102105.03;5024236;28;45265;-62
2021/12/22 00:47:09;;;;;;;;;56.33;46.33;;;;;2.09;67.05;102103.31;5022842;28;45312;-61
2021/12/22 00:49:35;;;;;;;;;49.75;39.25;;;;;2.07;67.52;102107.66;5008948;28;45589;-61
2021/12/22 00:52:01;;;;;;;;;55.00;42.00;;;;;2.03;67.15;102101.56;5021824;28;45426;-62
2021/12/22 00:54:27;;;;;;;;;45.50;36.00;;;;;1.99;67.84;102104.19;5021186;28;45607;-64
2021/12/22 00:57:02;;;;;;;;;59.00;44.67;;;;;1.98;67.42;102097.28;5021615;28;45438;-63
2021/12/22 00:59:27;;;;;;;;;46.25;34.75;;;;;1.97;67.96;102098.97;5021253;28;45380;-62
2021/12/22 01:01:54;;;;;;;;;57.00;42.00;;;;;1.98;67.98;102098.16;5012578;28;45498;-61
2021/12/22 01:04:19;;;;;;;;;56.75;40.00;;;;;1.98;67.96;102103.34;5023118;28;45340;-62
2021/12/22 01:06:46;;;;;;;;;51.50;43.25;;;;;1.98;67.43;102099.88;5025921;28;45327;-61
2021/12/22 01:09:12;;;;;;;;;54.50;36.50;;;;;1.96;68.00;102098.13;5022204;28;46243;-62
2021/12/22 01:11:38;;;;;;;;;52.75;38.50;;;;;1.95;68.02;102101.59;5021079;28;45424;-61
2021/12/22 01:14:04;;;;;;;;;48.50;35.25;;;;;1.95;67.91;102106.78;5023878;28;45344;-63
2021/12/22 01:16:30;;;;;;;;;45.00;36.50;;;;;1.94;68.10;102106.78;5026327;28;45432;-63
2021/12/22 01:19:01;;;;;;;;;48.75;36.50;;;;;1.91;67.68;102106.81;5012652;28;45465;-65
2021/12/22 01:21:50;;;;;;;;;47.00;42.50;;;;;1.88;67.52;102112.84;5026200;28;45248;-65
2021/12/22 01:24:29;;;;;;;;;49.33;37.67;;;;;1.84;68.25;102098.16;5023496;28;45566;-62
2021/12/22 01:27:03;;;;;;;;;50.25;39.50;;;;;1.83;67.86;102099.03;5023310;28;45305;-63
2021/12/22 01:29:32;;;;;;;;;64.67;42.67;;;;;1.83;68.43;102103.34;5027269;28;45409;-61
2021/12/22 01:31:58;;;;;;;;;46.00;38.00;;;;;1.81;67.91;102094.69;5032106;28;45487;-62
2021/12/22 01:34:25;;;;;;;;;45.75;38.50;;;;;1.81;68.31;102094.69;5031767;28;45374;-61
2021/12/22 01:36:51;;;;;;;;;54.00;39.33;;;;;1.79;68.49;102094.69;5024936;28;46254;-61
2021/12/22 01:39:16;;;;;;;;;49.67;42.33;;;;;1.79;68.58;102091.22;5018575;28;46170;-61
2021/12/22 01:41:42;;;;;;;;;48.25;40.25;;;;;1.77;68.28;102092.97;5001156;28;45166;-61
2021/12/22 01:44:09;;;;;;;;;51.00;39.50;;;;;1.72;68.16;102085.16;5000942;28;45294;-61
2021/12/22 01:49:14;;;;;;;;;52.00;36.75;;;;;1.65;68.37;102091.22;5016353;28;45519;-61
2021/12/22 01:51:48;;;;;;;;;49.00;38.00;;;;;1.61;68.37;102094.72;5020677;28;45272;-61
2021/12/22 01:54:19;;;;;;;;;42.50;34.50;;;;;1.61;69.12;102090.38;5020467;28;45406;-61
2021/12/22 01:56:50;;;;;;;;;46.75;38.00;;;;;1.60;69.27;102088.66;5020796;28;45346;-61
2021/12/22 01:59:15;;;;;;;;;38.50;29.25;;;;;1.64;69.02;102086.91;5020065;28;45475;-61
2021/12/22 02:01:41;;;;;;;;;45.00;38.00;;;;;1.68;69.47;102079.13;5022447;28;45523;-61
2021/12/22 02:04:10;;;;;;;;;45.75;36.25;;;;;1.75;68.68;102082.59;5033074;28;45415;-61
2021/12/22 02:06:45;;;;;;;;;46.75;35.25;;;;;1.79;68.51;102084.31;5033325;28;45505;-72
2021/12/22 02:09:15;;;;;;;;;44.75;36.25;;;;;1.85;69.04;102083.44;5046715;28;45464;-63
2021/12/22 02:11:40;;;;;;;;;49.25;38.00;;;;;1.93;68.59;102084.28;5032029;28;45450;-64
2021/12/22 02:14:07;;;;;;;;;49.50;36.50;;;;;1.96;68.51;102085.13;5035070;28;45365;-64
2021/12/22 02:16:37;;;;;;;;;49.25;33.50;;;;;2.00;68.45;102086.00;5034042;28;45396;-63
2021/12/22 02:19:06;;;;;;;;;50.75;35.50;;;;;2.03;68.54;102080.78;5031672;28;45494;-63
2021/12/22 02:21:38;;;;;;;;;46.75;35.75;;;;;2.00;68.85;102079.94;5009949;28;45191;-63
2021/12/22 02:24:04;;;;;;;;;43.75;25.50;;;;;1.97;69.00;102086.00;5003823;28;45332;-63
2021/12/22 02:26:41;;;;;;;;;42.50;31.00;;;;;1.96;68.83;102086.88;5004109;28;45583;-63
2021/12/22 02:29:17;;;;;;;;;42.25;36.25;;;;;1.97;68.94;102088.59;5003765;28;46179;-63
2021/12/22 02:31:47;;;;;;;;;48.75;33.25;;;;;2.00;69.30;102087.75;5003688;28;45225;-63
2021/12/22 02:34:15;;;;;;;;;48.25;35.75;;;;;2.02;68.61;102092.06;5004097;28;45325;-64
2021/12/22 02:36:42;;;;;;;;;42.00;34.75;;;;;2.09;68.45;102096.38;5003745;28;45574;-63
2021/12/22 02:39:08;;;;;;;;;46.50;38.25;;;;;2.14;68.59;102092.03;5003602;28;45377;-63
2021/12/22 02:41:37;;;;;;;;;42.50;34.75;;;;;2.17;68.36;102084.22;5003639;28;45301;-64
2021/12/22 02:44:03;;;;;;;;;53.50;39.75;;;;;2.19;68.14;102081.59;5003941;28;45364;-64
2021/12/22 02:46:34;;;;;;;;;46.00;33.75;;;;;2.20;68.47;102081.59;5003575;28;45578;-64
2021/12/22 02:49:02;;;;;;;;;43.75;28.75;;;;;2.22;68.60;102079.03;5005970;28;46581;-63
2021/12/22 02:51:29;;;;;;;;;48.50;34.50;;;;;2.26;68.15;102085.91;5023289;28;45343;-63
2021/12/22 03:04:13;;;;;;;;;43.25;35.25;;;;;2.29;67.48;102066.84;5023291;28;45285;-63
2021/12/22 03:06:52;;;;;;;;;47.25;38.25;;;;;2.29;68.03;102066.84;5023347;28;45535;-63
2021/12/22 03:09:23;;;;;;;;;44.75;36.75;;;;;2.28;67.52;102070.31;5022730;28;46206;-64
2021/12/22 03:11:50;;;;;;;;;37.00;34.25;;;;;2.25;67.20;102076.41;5023280;28;45481;-64
2021/12/22 03:14:17;;;;;;;;;50.50;34.25;;;;;2.21;67.42;102079.84;5021864;28;45328;-63
2021/12/22 03:16:44;;;;;;;;;40.00;35.75;;;;;2.17;67.96;102071.22;5023164;28;45443;-63
2021/12/22 03:19:12;;;;;;;;;45.00;37.00;;;;;2.13;67.36;102071.22;5022658;28;46008;-63
2021/12/22 03:21:40;;;;;;;;;36.25;29.00;;;;;2.04;67.54;102061.72;5022907;28;45359;-63
2021/12/22 03:24:06;;;;;;;;;49.50;37.25;;;;;1.96;67.79;102061.75;5022766;28;45325;-63
2021/12/22 03:26:32;;;;;;;;;0.00;0.00;;;;;1.96;67.98;102068.66;5023227;28;45306;-63
2021/12/22 03:28:57;;;;;;;;;38.75;29.00;;;;;1.97;68.09;102070.41;5022611;28;45310;-63
2021/12/22 03:31:23;;;;;;;;;37.25;33.50;;;;;1.98;68.60;102061.75;5023002;28;45217;-66
2021/12/22 03:33:48;;;;;;;;;45.00;32.75;;;;;1.98;68.28;102066.97;5022781;28;45233;-65
2021/12/22 03:36:14;;;;;;;;;38.00;31.50;;;;;2.00;68.56;102065.22;5022820;28;45505;-66
2021/12/22 03:38:40;;;;;;;;;50.50;33.00;;;;;2.02;67.88;102073.88;5022045;28;46121;-65
2021/12/22 03:41:07;;;;;;;;;42.25;31.50;;;;;2.03;68.40;102070.38;5022881;28;45282;-66
2021/12/22 03:43:34;;;;;;;;;39.00;34.25;;;;;2.06;68.49;102065.19;5022676;28;45343;-66
2021/12/22 03:46:00;;;;;;;;;46.25;31.50;;;;;2.08;68.64;102063.47;5022801;28;45318;-65
2021/12/22 03:48:26;;;;;;;;;48.25;32.50;;;;;2.10;67.99;102061.72;5022203;28;46337;-66
2021/12/22 03:50:52;;;;;;;;;51.25;32.75;;;;;2.13;68.02;102071.22;5020940;28;45413;-65
2021/12/22 03:53:18;;;;;;;;;41.00;33.00;;;;;2.14;67.90;102073.84;5022424;28;45528;-65
2021/12/22 03:55:43;;;;;;;;;35.50;25.00;;;;;2.19;68.47;102069.47;5022603;28;45269;-65
2021/12/22 03:58:09;;;;;;;;;44.75;33.75;;;;;2.21;67.62;102074.66;5022285;28;45294;-65
2021/12/22 04:00:40;;;;;;;;;50.00;32.50;;;;;2.24;68.03;102074.66;5022242;28;45154;-65
2021/12/22 04:03:10;;;;;;;;;46.50;37.25;;;;;2.25;67.64;102071.19;5022408;28;45350;-65
2021/12/22 04:05:35;;;;;;;;;46.00;32.00;;;;;2.25;68.10;102066.00;5022483;28;45446;-62
2021/12/22 04:08:01;;;;;;;;;54.50;38.00;;;;;2.25;67.67;102060.78;5022050;28;45199;-64
2021/12/22 04:10:26;;;;;;;;;37.50;32.75;;;;;2.22;67.39;102051.28;5022434;28;45204;-65
2021/12/22 04:12:54;;;;;;;;;49.25;37.50;;;;;2.24;68.01;102051.28;5022147;28;45215;-64
2021/12/22 04:15:21;;;;;;;;;50.00;41.67;;;;;2.27;67.51;102053.84;5022229;28;45250;-65
2021/12/22 04:17:47;;;;;;;;;52.00;38.75;;;;;2.32;68.12;102056.44;5021722;28;45429;-64
2021/12/22 04:20:13;;;;;;;;;47.50;34.50;;;;;2.36;68.03;102050.34;5021980;28;45312;-65
2021/12/22 04:22:39;;;;;;;;;40.00;30.75;;;;;2.38;67.79;102038.22;5021761;28;45285;-64
2021/12/22 04:25:07;;;;;;;;;37.25;29.75;;;;;2.39;67.76;102032.16;5021237;28;45167;-64
2021/12/22 04:27:33;;;;;;;;;43.75;35.75;;;;;2.40;67.83;102042.53;5021999;28;45528;-64
2021/12/22 04:29:58;;;;;;;;;46.00;38.50;;;;;2.41;67.25;102040.78;5021966;28;45323;-64
2021/12/22 04:32:24;;;;;;;;;39.50;34.75;;;;;2.43;67.70;102052.03;5022192;28;45385;-64
2021/12/22 04:34:49;;;;;;;;;36.50;30.75;;;;;2.40;67.34;102054.69;5022008;28;45431;-64
2021/12/22 04:37:15;;;;;;;;;45.00;36.75;;;;;2.40;67.59;102050.34;5021698;28;45575;-64
2021/12/22 04:39:40;;;;;;;;;31.00;30.25;;;;;2.38;67.22;102053.81;5021327;28;45248;-64
2021/12/22 04:42:06;;;;;;;;;45.75;36.00;;;;;2.38;67.41;102053.81;5022118;28;45458;-64
2021/12/22 04:44:32;;;;;;;;;47.25;35.25;;;;;2.35;66.79;102054.69;5021824;28;45249;-64
2021/12/22 04:46:59;;;;;;;;;36.00;29.50;;;;;2.33;66.71;102060.75;5021480;28;45331;-64
2021/12/22 04:49:25;;;;;;;;;47.50;42.00;;;;;2.33;66.82;102063.38;5021458;28;45189;-64
2021/12/22 04:51:53;;;;;;;;;39.25;33.25;;;;;2.28;66.87;102065.97;5021736;28;45169;-64
2021/12/22 04:54:32;;;;;;;;;46.50;37.50;;;;;2.27;67.10;102066.84;5021417;28;45460;-64
2021/12/22 04:56:57;;;;;;;;;53.25;33.75;;;;;2.30;67.62;102072.06;5021545;28;45361;-64
2021/12/22 04:59:24;;;;;;;;;44.00;31.00;;;;;2.33;66.95;102066.84;5033665;28;45293;-64
2021/12/22 05:01:50;;;;;;;;;41.25;32.75;;;;;2.36;67.13;102055.53;5021645;28;45227;-64
2021/12/22 05:04:16;;;;;;;;;39.75;32.25;;;;;2.34;67.34;102060.75;5021502;28;45470;-64
2021/12/22 05:06:41;;;;;;;;;58.00;36.50;;;;;2.33;66.64;102060.75;5021456;28;45994;-64
2021/12/22 05:09:07;;;;;;;;;44.75;33.50;;;;;2.33;66.82;102059.03;5020929;28;45487;-65
2021/12/22 05:11:34;;;;;;;;;39.25;30.25;;;;;2.34;66.51;102046.88;5021739;28;45360;-65
2021/12/22 05:14:02;;;;;;;;;42.25;32.00;;;;;2.34;66.58;102049.50;5021372;28;45510;-65
2021/12/22 05:16:29;;;;;;;;;43.75;35.00;;;;;2.33;66.76;102029.56;5021176;28;45435;-64
2021/12/22 05:18:59;;;;;;;;;39.75;20.50;;;;;2.35;67.00;102036.47;5036133;28;45432;-65
2021/12/22 05:21:26;;;;;;;;;53.50;39.25;;;;;2.35;66.83;102027.81;5021323;28;45297;-64
2021/12/22 05:23:53;;;;;;;;;44.50;37.50;;;;;2.36;66.99;102025.19;5020904;28;45542;-65
2021/12/22 05:26:20;;;;;;;;;49.25;37.00;;;;;2.34;67.02;102029.56;5020993;28;46090;-65
2021/12/22 05:28:45;;;;;;;;;43.00;32.75;;;;;2.34;66.63;102026.09;5020891;28;45253;-65
2021/12/22 05:31:11;;;;;;;;;37.25;24.50;;;;;2.32;66.66;102033.03;5021312;28;45292;-64
2021/12/22 05:33:36;;;;;;;;;37.50;28.25;;;;;2.32;67.24;102041.72;5020745;28;45273;-65
2021/12/22 05:36:02;;;;;;;;;48.25;37.25;;;;;2.31;66.89;102039.97;5020610;28;45408;-64
2021/12/22 05:38:28;;;;;;;;;51.00;40.00;;;;;2.32;66.77;102036.50;5019863;28;45355;-65
2021/12/22 05:40:53;;;;;;;;;45.00;35.50;;;;;2.35;67.43;102030.41;5020970;28;45363;-65
2021/12/22 05:43:19;;;;;;;;;43.50;34.50;;;;;2.38;67.15;102040.81;5020865;28;45567;-65
2021/12/22 05:45:44;;;;;;;;;46.25;32.25;;;;;2.40;66.98;102045.13;5020938;28;45320;-65
2021/12/22 05:48:10;;;;;;;;;42.25;35.00;;;;;2.38;67.00;102039.09;5024970;28;45411;-64
2021/12/22 05:50:35;;;;;;;;;44.50;34.75;;;;;2.35;66.47;102043.41;5020853;28;45332;-65
2021/12/22 05:53:01;;;;;;;;;44.25;36.25;;;;;2.30;66.64;102035.66;5020279;28;45257;-65
2021/12/22 05:55:26;;;;;;;;;46.25;36.50;;;;;2.28;66.28;102034.78;5020637;28;46087;-64
2021/12/22 05:57:53;;;;;;;;;46.50;38.75;;;;;2.29;66.77;102039.13;5020842;28;45317;-65
2021/12/22 06:00:18;;;;;;;;;51.25;33.25;;;;;2.33;66.44;102043.44;5020595;28;45162;-64
2021/12/22 06:02:44;;;;;;;;;40.00;35.00;;;;;2.34;66.79;102054.69;5020567;28;45271;-64
2021/12/22 06:05:10;;;;;;;;;42.00;35.75;;;;;2.31;67.23;102058.19;5020455;28;45406;-64
2021/12/22 06:07:36;;;;;;;;;49.50;40.00;;;;;2.32;66.93;102057.31;5020325;28;45174;-65
2021/12/22 06:10:04;;;;;;;;;45.75;35.00;;;;;2.33;66.74;102059.03;5020537;28;45268;-66
2021/12/22 06:12:29;;;;;;;;;55.25;37.00;;;;;2.35;66.80;102053.81;5019320;28;45492;-66
2021/12/22 06:14:55;;;;;;;;;31.25;27.25;;;;;2.33;66.64;102046.03;5020238;28;46171;-65
2021/12/22 06:17:20;;;;;;;;;46.50;34.75;;;;;2.30;66.37;102050.41;5020077;28;45326;-65
2021/12/22 06:19:46;;;;;;;;;50.25;34.00;;;;;2.24;66.34;102053.88;5020444;28;45285;-65
2021/12/22 06:22:11;;;;;;;;;47.00;33.50;;;;;2.23;66.69;102053.00;5020231;28;45304;-65
2021/12/22 06:24:37;;;;;;;;;45.25;34.50;;;;;2.24;66.76;102048.66;5019874;28;45417;-65
2021/12/22 06:27:02;;;;;;;;;32.75;23.75;;;;;2.22;66.04;102056.47;5020025;28;45217;-65
2021/12/22 06:29:28;;;;;;;;;46.50;31.00;;;;;2.22;66.42;102046.09;5020350;28;45245;-65
2021/12/22 06:31:53;;;;;;;;;44.75;33.00;;;;;2.18;66.15;102044.34;5019568;28;45260;-65
2021/12/22 06:34:19;;;;;;;;;46.25;35.75;;;;;2.18;66.22;102038.28;5000468;28;46351;-65
2021/12/22 06:36:44;;;;;;;;;44.00;35.00;;;;;2.21;66.34;102046.06;5003926;28;45216;-65
2021/12/22 06:39:10;;;;;;;;;41.00;27.00;;;;;2.20;66.43;102042.59;5030891;28;45308;-65
2021/12/22 06:41:36;;;;;;;;;46.50;32.75;;;;;2.20;66.18;102040.00;5020348;28;45197;-65
2021/12/22 06:44:02;;;;;;;;;38.00;27.50;;;;;2.21;66.73;102046.06;5000343;28;46325;-65
2021/12/22 06:46:28;;;;;;;;;42.75;36.00;;;;;2.24;66.58;102046.06;5000038;28;45360;-65
2021/12/22 06:48:54;;;;;;;;;33.00;30.25;;;;;2.21;66.10;102052.16;5003505;28;45305;-65
2021/12/22 06:51:19;;;;;;;;;42.25;34.00;;;;;2.18;66.27;102072.09;5023086;28;45253;-65
2021/12/22 06:53:45;;;;;;;;;39.00;31.00;;;;;2.18;67.01;102072.09;5023087;28;46337;-66
2021/12/22 06:56:10;;;;;;;;;42.00;34.50;;;;;2.19;66.49;102074.66;5023058;28;45236;-66
2021/12/22 06:58:36;;;;;;;;;48.50;35.00;;;;;2.20;66.70;102073.78;5023505;28;45272;-66
2021/12/22 07:01:02;;;;;;;;;56.25;38.50;;;;;2.23;66.84;102078.16;5023187;28;45327;-65
2021/12/22 07:03:27;;;;;;;;;52.67;37.67;;;;;2.26;67.16;102069.47;5023251;28;45405;-65
2021/12/22 07:05:53;;;;;;;;;53.00;35.75;;;;;2.29;67.17;102059.03;5023009;28;45909;-65
2021/12/22 07:08:19;;;;;;;;;51.00;40.25;;;;;2.34;66.50;102060.75;5023250;28;45284;-64
2021/12/22 07:10:44;;;;;;;;;45.50;37.50;;;;;2.35;66.35;102052.06;5023018;28;45217;-64
2021/12/22 07:13:11;;;;;;;;;44.75;35.00;;;;;2.34;66.74;102058.16;5021687;28;46165;-64
2021/12/22 07:15:36;;;;;;;;;44.50;35.50;;;;;2.33;66.85;102065.97;5022136;28;45209;-63
2021/12/22 07:18:02;;;;;;;;;47.25;34.25;;;;;2.33;66.16;102056.44;5022542;28;45224;-63
2021/12/22 07:20:28;;;;;;;;;47.50;33.50;;;;;2.31;66.43;102059.91;5022675;28;45371;-64
2021/12/22 07:22:54;;;;;;;;;39.75;32.25;;;;;2.31;66.21;102059.91;5021601;28;45500;-64
2021/12/22 07:25:23;;;;;;;;;54.50;38.00;;;;;2.29;66.38;102057.31;5021627;28;45543;-64
2021/12/22 07:27:48;;;;;;;;;50.75;32.25;;;;;2.29;66.60;102057.31;5021699;28;45509;-64
2021/12/22 07:30:14;;;;;;;;;46.50;30.25;;;;;2.24;66.39;102057.34;5021863;28;45296;-63
2021/12/22 07:32:40;;;;;;;;;40.50;31.75;;;;;2.21;65.80;102064.25;5022110;28;45342;-64
2021/12/22 07:35:15;;;;;;;;;52.25;39.25;;;;;2.17;65.95;102065.16;5021901;28;45437;-64
2021/12/22 07:37:40;;;;;;;;;44.00;35.00;;;;;2.10;66.04;102059.09;5021917;28;45736;-64
2021/12/22 07:40:08;;;;;;;;;42.75;29.00;;;;;2.07;66.60;102055.66;5022527;28;45638;-64
2021/12/22 07:42:34;;;;;;;;;52.67;34.33;;;;;2.07;66.43;102047.88;5022593;28;46244;-64
2021/12/22 07:45:00;;;;;;;;;49.50;37.50;;;;;2.10;65.95;102059.09;5022179;28;45328;-64
2021/12/22 07:47:25;;;;;;;;;55.75;43.00;;;;;2.09;66.48;102056.53;5022251;28;45403;-64
2021/12/22 07:49:51;;;;;;;;;47.75;37.25;;;;;2.11;66.43;102049.56;5022306;28;45323;-64
2021/12/22 07:52:16;;;;;;;;;46.75;33.50;;;;;2.12;66.28;102065.16;5022099;28;45966;-66
2021/12/22 07:54:42;;;;;;;;;45.25;32.50;;;;;2.16;66.21;102059.09;5022007;28;45314;-64
2021/12/22 07:57:07;;;;;;;;;44.67;33.33;;;;;2.19;65.90;102061.69;5022487;28;45331;-64
2021/12/22 07:59:33;;;;;;;;;51.75;37.00;;;;;2.20;65.96;102065.13;5021362;28;45530;-63
2021/12/22 08:01:58;;;;;;;;;46.50;37.50;;;;;2.19;65.76;102071.22;5022015;28;45417;-64
2021/12/22 08:04:24;;;;;;;;;61.50;38.75;;;;;2.19;66.11;102066.00;5021969;28;45236;-64
2021/12/22 08:06:50;;;;;;;;;54.25;38.00;;;;;2.20;66.02;102075.53;5022072;28;45263;-64
2021/12/22 08:09:16;;;;;;;;;38.25;30.75;;;;;2.21;66.33;102077.25;5021981;28;45499;-64
2021/12/22 08:11:42;;;;;;;;;36.25;28.50;;;;;2.22;66.45;102077.28;5022068;28;45302;-64
2021/12/22 08:14:07;;;;;;;;;44.75;35.75;;;;;2.21;66.33;102070.34;5021777;28;45384;-64
2021/12/22 08:16:33;;;;;;;;;43.75;38.00;;;;;2.20;65.65;102073.78;5021994;28;45348;-64
2021/12/22 08:18:58;;;;;;;;;56.25;35.50;;;;;2.19;65.94;102072.06;5021841;28;45448;-65
2021/12/22 08:21:24;;;;;;;;;50.50;37.25;;;;;2.19;66.44;102061.69;5022020;28;45923;-65
2021/12/22 08:23:49;;;;;;;;;49.75;34.00;;;;;2.19;65.95;102063.41;5021470;28;45351;-64
2021/12/22 08:26:15;;;;;;;;;47.25;40.00;;;;;2.19;66.26;102064.28;5022072;28;45225;-64
2021/12/22 08:28:40;;;;;;;;;53.25;38.00;;;;;2.20;66.15;102058.19;5021961;28;45316;-65
2021/12/22 08:31:06;;;;;;;;;48.00;34.75;;;;;2.21;66.25;102046.97;5021801;28;45285;-64
2021/12/22 08:33:37;;;;;;;;;50.50;35.25;;;;;2.28;66.57;102050.38;5021486;28;45305;-64
2021/12/22 08:38:50;;;;;;;;;52.75;36.50;;;;;2.30;65.71;102053.84;5021314;28;45315;-65
2021/12/22 08:41:17;;;;;;;;;41.50;28.25;;;;;2.31;66.16;102059.91;5021619;28;46289;-65
2021/12/22 08:43:43;;;;;;;;;60.00;41.00;;;;;2.32;65.70;102053.84;5021604;28;45214;-64
2021/12/22 08:46:08;;;;;;;;;58.50;40.75;;;;;2.34;65.81;102055.56;5021702;28;45399;-64
2021/12/22 08:48:34;;;;;;;;;43.50;37.00;;;;;2.37;66.03;102049.47;5021549;28;45267;-64
2021/12/22 08:50:59;;;;;;;;;59.75;42.25;;;;;2.36;65.51;102050.34;5021130;28;46172;-64
2021/12/22 08:53:25;;;;;;;;;55.75;41.25;;;;;2.33;66.12;102048.63;5020828;28;45451;-64
2021/12/22 08:55:50;;;;;;;;;49.75;39.25;;;;;2.35;66.23;102040.81;5021441;28;45374;-65
2021/12/22 08:58:16;;;;;;;;;47.50;37.00;;;;;2.34;66.28;102044.28;5021111;28;45696;-65
2021/12/22 09:00:42;;;;;;;;;55.00;40.75;;;;;2.33;66.36;102040.84;5021044;28;45922;-65
2021/12/22 09:03:07;;;;;;;;;53.25;35.50;;;;;2.37;66.23;102034.75;5020993;28;45290;-65
2021/12/22 09:05:33;;;;;;;;;47.25;36.25;;;;;2.40;66.46;102031.28;5021391;28;45352;-65
2021/12/22 09:07:58;;;;;;;;;60.75;41.75;;;;;2.43;66.41;102037.31;5021072;28;45252;-65
2021/12/22 09:10:24;;;;;;;;;52.50;40.75;;;;;2.51;66.56;102035.53;5020977;28;45447;-65
2021/12/22 09:12:49;;;;;;;;;67.00;44.50;;;;;2.57;65.74;102038.97;5019842;28;45347;-65
2021/12/22 09:15:17;;;;;;;;;51.50;36.25;;;;;2.62;65.79;102039.84;5021189;28;45314;-65
2021/12/22 09:17:43;;;;;;;;;39.00;32.50;;;;;2.66;66.20;102029.38;5020996;28;45586;-65
2021/12/22 09:20:09;;;;;;;;;53.25;39.00;;;;;2.65;65.69;102030.25;5020816;28;45418;-65
2021/12/22 09:22:34;;;;;;;;;60.00;42.00;;;;;2.66;65.62;102018.97;5020743;28;45487;-65
2021/12/22 09:25:00;;;;;;;;;52.00;39.75;;;;;2.64;65.80;102036.34;5021411;28;45292;-65
2021/12/22 09:27:25;;;;;;;;;51.50;40.75;;;;;2.67;65.99;102020.69;5021298;28;45243;-65
2021/12/22 09:29:51;;;;;;;;;60.25;42.75;;;;;2.69;65.55;102029.38;5021090;28;45216;-65
2021/12/22 09:32:17;;;;;;;;;52.50;40.25;;;;;2.72;65.74;102036.28;5020703;28;45543;-65
2021/12/22 09:34:45;;;;;;;;;55.25;37.75;;;;;2.68;65.67;102027.63;5021140;28;45336;-65
2021/12/22 09:37:11;;;;;;;;;69.50;42.25;;;;;2.65;65.99;102032.88;5020793;28;45260;-65
2021/12/22 09:39:37;;;;;;;;;61.00;42.50;;;;;2.68;65.48;102026.75;5020285;28;45455;-65
2021/12/22 09:42:04;;;;;;;;;69.00;48.50;;;;;2.67;65.94;102032.84;5020681;28;45405;-65
2021/12/22 09:44:32;;;;;;;;;60.75;42.75;;;;;2.73;65.48;102038.03;5021035;28;45323;-65
2021/12/22 09:46:59;;;;;;;;;51.00;41.50;;;;;2.78;65.45;102042.34;5020700;28;45604;-65
2021/12/22 09:54:41;;;;;;;;;46.75;32.50;;;;;2.83;65.38;102037.09;5020473;28;45249;-65
2021/12/22 09:57:07;;;;;;;;;56.75;43.50;;;;;2.86;65.72;102044.03;5020374;28;45270;-64
2021/12/22 09:59:33;;;;;;;;;54.25;40.75;;;;;2.90;65.85;102050.91;5019968;28;45675;-65
2021/12/22 10:01:59;;;;;;;;;44.75;36.00;;;;;2.91;65.42;102050.91;5020462;28;45300;-65
2021/12/22 10:04:24;;;;;;;;;64.25;41.50;;;;;2.93;65.05;102040.50;5020323;28;45333;-65
2021/12/22 10:06:50;;;;;;;;;57.75;41.75;;;;;2.97;65.48;102043.06;5020464;28;45399;-65
2021/12/22 10:09:22;;;;;;;;;66.33;49.00;;;;;3.04;65.49;102043.88;5020001;28;45439;-65
2021/12/22 10:11:48;;;;;;;;;55.50;42.75;;;;;3.11;64.82;102052.53;5020281;28;45386;-65
2021/12/22 10:14:22;;;;;;;;;56.00;42.25;;;;;3.15;64.97;102042.06;5020374;28;45327;-65
2021/12/22 10:16:51;;;;;;;;;50.75;40.75;;;;;3.18;64.87;102044.66;5020365;28;45384;-64
2021/12/22 10:19:17;;;;;;;;;65.75;43.50;;;;;3.24;64.83;102046.31;5020051;28;45368;-65
2021/12/22 10:21:53;;;;;;;;;65.50;45.75;;;;;3.26;64.59;102042.00;5019970;28;45262;-65
2021/12/22 10:24:22;;;;;;;;;61.25;43.25;;;;;3.26;64.13;102047.19;5022490;28;45456;-64
2021/12/22 10:27:01;;;;;;;;;44.50;37.75;;;;;3.28;64.68;102041.09;5023753;28;45479;-66
2021/12/22 10:29:33;;;;;;;;;54.00;39.75;;;;;3.31;64.63;102048.88;5022919;28;46331;-65
2021/12/22 10:32:08;;;;;;;;;54.75;39.75;;;;;3.38;64.29;102052.28;5023246;28;45339;-64
2021/12/22 10:34:34;;;;;;;;;64.75;44.75;;;;;3.41;64.14;102041.00;5023774;28;45439;-64
2021/12/22 10:36:59;;;;;;;;;53.00;42.00;;;;;3.41;63.73;102030.59;5023500;28;45471;-65
2021/12/22 10:39:28;;;;;;;;;68.00;41.75;;;;;3.42;64.04;102033.16;5023054;28;45436;-64
2021/12/22 10:42:02;;;;;;;;;62.50;43.50;;;;;3.45;64.24;102027.91;5023453;28;45282;-64
2021/12/22 10:44:35;;;;;;;;;59.25;42.50;;;;;3.52;64.01;102028.72;5023706;28;45308;-65
2021/12/22 10:47:21;;;;;;;;;51.75;39.75;;;;;3.60;63.92;102016.50;5023341;28;45467;-64
2021/12/22 10:50:01;;;;;;;;;58.00;45.75;;;;;3.70;63.55;102014.66;5023439;28;45411;-65
2021/12/22 10:52:27;;;;;;;;;54.25;40.75;;;;;3.79;63.59;102004.13;5038584;28;45356;-64
2021/12/22 10:55:09;;;;;;;;;50.25;39.00;;;;;3.84;63.29;101989.31;5023201;28;45253;-65
2021/12/22 10:57:37;;;;;;;;;55.00;42.00;;;;;3.80;62.92;101991.09;5023525;28;45473;-64
2021/12/22 11:00:25;;;;;;;;;47.75;40.25;;;;;3.76;62.57;101985.94;5022807;28;46392;-64
2021/12/22 11:03:05;;;;;;;;;55.50;35.25;;;;;3.76;62.86;101991.13;5022905;28;45399;-65
2021/12/22 11:05:45;;;;;;;;;56.00;40.75;;;;;3.73;62.81;101979.03;5023012;28;45174;-65
2021/12/22 11:08:21;;;;;;;;;61.50;44.00;;;;;3.67;63.05;101980.81;5023033;28;45407;-65
2021/12/22 11:10:52;;;;;;;;;60.50;43.50;;;;;3.68;62.77;101975.59;5022807;28;45487;-65
2021/12/22 11:13:23;;;;;;;;;63.50;44.00;;;;;3.69;62.90;101977.31;5023217;28;45217;-64
2021/12/22 11:15:49;;;;;;;;;54.75;39.00;;;;;3.72;62.56;101977.28;5023292;28;45402;-64
2021/12/22 11:18:29;;;;;;;;;56.50;44.25;;;;;3.71;62.90;101965.13;5023173;28;45616;-64
2021/12/22 11:21:16;;;;;;;;;63.75;44.75;;;;;3.70;62.50;101971.22;5022784;28;46031;-64
2021/12/22 11:23:42;;;;;;;;;58.25;43.75;;;;;3.69;62.93;101961.69;5022372;28;45335;-65
2021/12/22 11:26:09;;;;;;;;;66.50;44.75;;;;;3.70;62.78;101952.97;5023060;28;45423;-65
2021/12/22 11:28:35;;;;;;;;;56.25;43.50;;;;;3.79;63.21;101957.22;5023114;28;45228;-64
2021/12/22 11:31:02;;;;;;;;;49.00;38.25;;;;;3.88;62.53;101946.72;5022953;28;45262;-64
2021/12/22 11:33:30;;;;;;;;;44.00;38.75;;;;;3.96;62.97;101946.63;5022726;28;45439;-65
2021/12/22 11:35:56;;;;;;;;;54.25;39.50;;;;;4.01;62.96;101948.25;5021722;28;45342;-64
2021/12/22 11:38:23;;;;;;;;;62.50;41.25;;;;;4.08;63.05;101949.03;5022687;28;45339;-64